createdAt,value
2016-07-25T17:20:12.127Z,155
2016-07-25T17:21:11.908Z,160
2016-07-25T17:22:11.197Z,155
2016-07-25T17:23:12.160Z,155
2016-07-25T17:24:11.942Z,155
2016-07-25T17:25:12.177Z,160
2016-07-25T17:26:11.977Z,160
2016-07-25T17:27:12.395Z,160
2016-07-25T17:28:11.994Z,155
2016-07-25T17:29:11.314Z,150
2016-07-25T17:30:11.319Z,145
2016-07-25T17:31:12.071Z,140
2016-07-25T17:32:12.267Z,135
2016-07-25T17:33:12.118Z,130
2016-07-25T17:34:11.378Z,130
2016-07-25T17:35:12.844Z,125
2016-07-25T17:36:12.119Z,125
2016-07-25T17:37:12.376Z,125
2016-07-25T17:38:27.249Z,120
2016-07-25T17:39:11.655Z,120
2016-07-25T17:40:13.111Z,120
2016-07-25T17:41:11.728Z,120
2016-07-25T17:42:12.429Z,120
2016-07-25T17:43:12.223Z,125
2016-07-25T17:44:13.353Z,120
2016-07-25T17:45:12.478Z,115
2016-07-25T17:46:12.276Z,115
2016-07-25T17:47:12.299Z,110
2016-07-25T17:48:12.603Z,105
2016-07-25T17:49:11.605Z,100
2016-07-25T17:50:13.902Z,95
2016-07-25T17:51:12.563Z,90
2016-07-25T17:52:11.651Z,85
2016-07-25T17:53:13.086Z,85
2016-07-25T17:54:11.885Z,80
2016-07-25T17:55:12.403Z,80
2016-07-25T17:56:11.709Z,75
2016-07-25T17:57:11.722Z,70
2016-07-25T17:58:12.849Z,70
2016-07-25T17:59:13.435Z,65
2016-07-25T18:00:12.380Z,65
2016-07-25T18:01:11.781Z,65
2016-07-25T18:02:11.822Z,60
2016-07-25T18:03:11.821Z,60
2016-07-25T18:04:12.762Z,60
2016-07-25T18:05:11.850Z,55
2016-07-25T18:06:12.577Z,55
2016-07-25T18:07:12.806Z,55
2016-07-25T18:08:12.611Z,55
2016-07-25T18:09:12.610Z,50
2016-07-25T18:10:11.929Z,50
2016-07-25T18:11:12.644Z,50
2016-07-25T18:12:12.860Z,45
2016-07-25T18:13:12.670Z,45
2016-07-25T18:14:12.911Z,45
2016-07-25T18:15:13.127Z,40
2016-07-25T18:16:12.957Z,40
2016-07-25T18:17:12.848Z,40
2016-07-25T18:18:12.730Z,40
2016-07-25T18:19:12.050Z,35
2016-07-25T18:20:12.976Z,35
2016-07-25T18:21:12.781Z,35
2016-07-25T18:22:12.075Z,35
2016-07-25T18:23:12.822Z,35
2016-07-25T18:24:12.106Z,35
2016-07-25T18:25:12.847Z,35
2016-07-25T18:26:12.176Z,30
2016-07-25T18:27:12.864Z,30
2016-07-25T18:28:13.313Z,30
2016-07-25T18:29:12.189Z,25
2016-07-25T18:30:13.642Z,25
2016-07-25T18:31:13.707Z,25
2016-07-25T18:32:12.225Z,25
2016-07-25T18:33:12.259Z,20
2016-07-25T18:34:12.249Z,20
2016-07-25T18:35:14.874Z,20
2016-07-25T18:36:13.003Z,20
2016-07-25T18:37:13.735Z,20
2016-07-25T18:38:13.031Z,15
2016-07-25T18:39:13.733Z,15
2016-07-25T18:40:12.339Z,15
2016-07-25T18:41:13.074Z,15
2016-07-25T18:42:12.384Z,15
2016-07-25T18:43:12.578Z,15
2016-07-25T18:45:13.133Z,10
2016-07-25T18:47:13.152Z,10
2016-07-25T18:48:13.188Z,10
2016-07-25T18:49:29.255Z,10
2016-07-25T18:50:13.181Z,10
2016-07-25T18:51:14.145Z,10
2016-07-25T18:52:12.580Z,10
2016-07-25T18:53:27.431Z,10
2016-07-25T18:54:13.550Z,5
2016-07-25T18:55:13.365Z,5
2016-07-25T18:56:13.289Z,5
2016-07-25T18:57:12.779Z,5
2016-07-25T18:58:12.582Z,5
2016-07-25T18:59:12.598Z,5
2016-07-25T19:00:14.245Z,5
2016-07-25T19:01:13.351Z,5
2016-07-25T19:02:13.564Z,5
2016-07-25T19:03:28.332Z,5
2016-07-25T19:04:14.313Z,5
2016-07-25T19:05:13.095Z,0
2016-07-25T19:06:14.352Z,0
2016-07-25T19:07:27.976Z,0
2016-07-25T19:08:14.894Z,0
2016-07-25T19:09:45.029Z,0
2016-07-25T19:10:15.118Z,0
2016-07-25T19:11:13.877Z,0
2016-07-25T19:12:28.940Z,0
2016-07-25T19:13:16.697Z,0
2016-07-25T19:14:13.750Z,0
2016-07-25T19:15:13.012Z,0
2016-07-25T19:16:13.988Z,0
2016-07-25T19:18:16.288Z,0
2016-07-25T19:19:12.862Z,0
2016-07-25T19:20:12.955Z,0
2016-07-25T19:21:12.884Z,0
2016-07-25T19:22:12.904Z,0
2016-07-25T19:23:12.913Z,0
2016-07-25T19:24:13.127Z,0
2016-07-25T19:25:14.375Z,0
2016-07-25T19:26:15.849Z,0
2016-07-25T19:27:15.197Z,0
2016-07-25T19:28:12.979Z,0
2016-07-25T19:29:13.706Z,0
2016-07-25T19:30:14.515Z,0
2016-07-25T19:31:14.133Z,0
2016-07-25T19:32:14.676Z,0
2016-07-25T19:33:13.772Z,0
2016-07-25T19:34:14.029Z,0
2016-07-25T19:35:13.801Z,0
2016-07-25T19:36:13.128Z,0
2016-07-25T19:37:13.818Z,0
2016-07-25T19:38:18.992Z,0
2016-07-25T19:39:13.902Z,0
2016-07-25T19:40:14.214Z,0
2016-07-25T19:41:14.039Z,0
2016-07-25T19:42:14.230Z,0
2016-07-25T19:43:14.017Z,0
2016-07-25T19:44:13.444Z,0
2016-07-25T19:45:15.809Z,0
2016-07-25T19:46:13.307Z,0
2016-07-25T19:47:13.285Z,0
2016-07-25T19:48:13.644Z,0
2016-07-25T19:49:13.968Z,0
2016-07-25T19:50:15.752Z,0
2016-07-25T19:51:13.491Z,0
2016-07-25T19:52:14.704Z,0
2016-07-25T19:53:15.475Z,0
2016-07-25T19:54:14.501Z,0
2016-07-25T19:55:28.350Z,0
2016-07-25T19:56:14.348Z,0
2016-07-25T19:57:13.641Z,0
2016-07-25T19:58:14.507Z,0
2016-07-25T19:59:14.439Z,0
2016-07-25T20:00:17.005Z,0
2016-07-25T20:01:14.308Z,0
2016-07-25T20:02:13.628Z,0
2016-07-25T20:03:13.499Z,0
2016-07-25T20:04:13.733Z,0
2016-07-25T20:05:14.361Z,0
2016-07-25T20:06:14.189Z,0
2016-07-25T20:07:14.283Z,0
2016-07-25T20:08:13.992Z,0
2016-07-25T20:09:14.283Z,0
2016-07-25T20:10:14.800Z,0
2016-07-25T20:11:15.049Z,0
2016-07-25T20:12:15.337Z,0
2016-07-25T20:13:13.779Z,0
2016-07-25T20:14:14.705Z,0
2016-07-25T20:15:28.432Z,0
2016-07-25T20:16:13.605Z,0
2016-07-25T20:17:15.588Z,0
2016-07-25T20:18:14.555Z,0
2016-07-25T20:19:14.441Z,0
2016-07-25T20:20:13.866Z,0
2016-07-25T20:21:13.956Z,0
2016-07-25T20:22:15.123Z,0
2016-07-25T20:23:13.833Z,0
2016-07-25T20:24:15.316Z,0
2016-07-25T20:25:29.402Z,0
2016-07-25T20:26:14.694Z,0
2016-07-25T20:27:14.464Z,0
2016-07-25T20:28:14.674Z,0
2016-07-25T20:29:14.446Z,0
2016-07-25T20:30:13.750Z,0
2016-07-25T20:31:13.768Z,0
2016-07-25T20:34:14.512Z,0
2016-07-25T20:35:14.527Z,0
2016-07-25T20:36:13.831Z,0
2016-07-25T20:37:14.551Z,0
2016-07-25T20:38:14.049Z,0
2016-07-25T20:39:14.590Z,0
2016-07-25T20:40:14.090Z,0
2016-07-25T20:41:14.836Z,0
2016-07-25T20:42:13.923Z,0
2016-07-25T20:43:13.913Z,0
2016-07-25T20:44:13.913Z,0
2016-07-25T20:45:13.944Z,0
2016-07-25T20:46:14.659Z,0
2016-07-25T20:47:13.960Z,0
2016-07-25T20:48:14.172Z,0
2016-07-25T20:49:14.896Z,0
2016-07-25T20:50:14.005Z,0
2016-07-25T20:51:14.707Z,0
2016-07-25T20:52:14.017Z,0
2016-07-25T20:53:14.757Z,0
2016-07-25T20:54:14.773Z,0
2016-07-25T20:55:14.112Z,0
2016-07-25T20:56:14.267Z,0
2016-07-25T20:57:15.147Z,0
2016-07-25T20:58:14.091Z,0
2016-07-25T20:59:14.302Z,0
2016-07-25T21:00:14.320Z,0
2016-07-25T21:01:15.777Z,0
2016-07-25T21:02:15.050Z,0
2016-07-25T21:03:14.349Z,0
2016-07-25T21:04:14.160Z,0
2016-07-25T21:05:15.087Z,0
2016-07-25T21:06:14.387Z,0
2016-07-25T21:07:14.909Z,0
2016-07-25T21:08:14.412Z,0
2016-07-25T21:09:14.415Z,0
2016-07-25T21:10:14.254Z,0
2016-07-25T21:11:15.153Z,0
2016-07-25T21:12:14.265Z,0
2016-07-25T21:13:14.269Z,0
2016-07-25T21:14:14.301Z,0
2016-07-25T21:15:14.288Z,0
2016-07-25T21:16:29.167Z,0
2016-07-25T21:17:14.553Z,0
2016-07-25T21:18:14.591Z,0
2016-07-25T21:19:15.071Z,0
2016-07-25T21:20:14.352Z,0
2016-07-25T21:21:15.522Z,0
2016-07-25T21:23:14.590Z,0
2016-07-25T21:24:14.605Z,0
2016-07-25T21:25:14.404Z,0
2016-07-25T21:26:14.410Z,0
2016-07-25T21:27:30.409Z,0
2016-07-25T21:28:14.626Z,0
2016-07-25T21:29:14.903Z,0
2016-07-25T21:30:15.911Z,0
2016-07-25T21:31:15.384Z,0
2016-07-25T21:32:15.922Z,0
2016-07-25T21:33:29.345Z,0
2016-07-25T21:34:15.401Z,0
2016-07-25T21:35:14.504Z,0
2016-07-25T21:36:15.427Z,0
2016-07-25T21:37:14.744Z,0
2016-07-25T21:38:15.261Z,0
2016-07-25T21:39:16.416Z,0
2016-07-25T21:40:15.490Z,0
2016-07-25T21:41:15.510Z,0
2016-07-25T21:42:14.652Z,0
2016-07-25T21:43:14.594Z,0
2016-07-25T21:44:14.813Z,0
2016-07-25T21:45:29.494Z,0
2016-07-25T21:46:14.846Z,0
2016-07-25T21:47:15.346Z,0
2016-07-25T21:49:15.381Z,0
2016-07-25T21:50:14.688Z,0
2016-07-25T21:51:14.756Z,0
2016-07-25T21:52:14.698Z,0
2016-07-25T21:53:16.183Z,0
2016-07-25T21:54:14.935Z,0
2016-07-25T21:55:15.638Z,0
2016-07-25T21:56:14.753Z,0
2016-07-25T21:57:14.754Z,0
2016-07-25T21:58:14.764Z,0
2016-07-25T21:59:29.631Z,0
2016-07-25T22:00:15.012Z,0
2016-07-25T22:01:14.794Z,0
2016-07-25T22:02:15.525Z,0
2016-07-25T22:04:14.830Z,0
2016-07-25T22:05:14.854Z,0
2016-07-25T22:06:15.750Z,0
2016-07-25T22:07:30.455Z,0
2016-07-25T22:08:14.868Z,0
2016-07-25T22:09:16.335Z,0
2016-07-25T22:10:14.898Z,0
2016-07-25T22:11:14.900Z,0
2016-07-25T22:12:15.849Z,0
2016-07-25T22:13:14.929Z,0
2016-07-25T22:14:16.402Z,0
2016-07-25T22:15:15.360Z,0
2016-07-25T22:16:14.964Z,0
2016-07-25T22:17:15.914Z,0
2016-07-25T22:19:15.917Z,0
2016-07-25T22:20:16.432Z,0
2016-07-25T22:21:15.737Z,0
2016-07-25T22:22:15.025Z,0
2016-07-25T22:23:30.810Z,0
2016-07-25T22:24:15.742Z,0
2016-07-25T22:25:15.972Z,0
2016-07-25T22:26:15.765Z,0
2016-07-25T22:27:29.939Z,0
2016-07-25T22:28:15.310Z,0
2016-07-25T22:29:16.020Z,0
2016-07-25T22:30:15.103Z,0
2016-07-25T22:31:15.122Z,0
2016-07-25T22:32:30.005Z,0
2016-07-25T22:33:15.153Z,0
2016-07-25T22:34:15.147Z,0
2016-07-25T22:35:16.108Z,0
2016-07-25T22:36:16.132Z,0
2016-07-25T22:37:15.204Z,0
2016-07-25T22:38:15.191Z,0
2016-07-25T22:39:16.124Z,0
2016-07-25T22:40:15.211Z,0
2016-07-25T22:41:15.459Z,0
2016-07-25T22:42:15.237Z,0
2016-07-25T22:43:15.527Z,0
2016-07-25T22:44:15.965Z,0
2016-07-25T22:45:15.974Z,0
2016-07-25T22:46:15.286Z,0
2016-07-25T22:47:15.499Z,0
2016-07-25T22:48:16.225Z,0
2016-07-25T22:49:16.028Z,0
2016-07-25T22:50:15.313Z,0
2016-07-25T22:51:17.101Z,0
2016-07-25T22:52:16.386Z,0
2016-07-25T22:53:15.375Z,0
2016-07-25T22:54:15.567Z,0
2016-07-25T22:55:18.019Z,0
2016-07-25T22:56:16.097Z,0
2016-07-25T22:57:16.014Z,0
2016-07-25T22:58:15.402Z,0
2016-07-25T22:59:15.430Z,0
2016-07-25T23:00:16.103Z,0
2016-07-25T23:01:15.668Z,0
2016-07-25T23:02:16.420Z,0
2016-07-25T23:03:16.628Z,0
2016-07-25T23:04:17.710Z,0
2016-07-25T23:05:16.233Z,0
2016-07-25T23:06:15.533Z,0
2016-07-25T23:07:15.503Z,0
2016-07-25T23:08:16.279Z,0
2016-07-25T23:09:30.398Z,0
2016-07-25T23:10:15.549Z,0
2016-07-25T23:11:15.551Z,0
2016-07-25T23:12:30.423Z,0
2016-07-25T23:13:31.344Z,0
2016-07-25T23:14:16.291Z,0
2016-07-25T23:15:15.618Z,0
2016-07-25T23:16:15.603Z,0
2016-07-25T23:17:17.170Z,0
2016-07-25T23:18:15.669Z,0
2016-07-25T23:19:16.550Z,0
2016-07-25T23:20:16.370Z,0
2016-07-25T23:21:15.658Z,0
2016-07-25T23:22:16.473Z,0
2016-07-25T23:23:16.510Z,0
2016-07-25T23:24:15.687Z,0
2016-07-25T23:25:15.692Z,0
2016-07-25T23:26:17.097Z,0
2016-07-25T23:27:16.131Z,0
2016-07-25T23:28:16.121Z,0
2016-07-25T23:29:16.102Z,0
2016-07-25T23:30:16.111Z,0
2016-07-25T23:31:15.958Z,0
2016-07-25T23:32:15.770Z,0
2016-07-25T23:33:15.777Z,0
2016-07-25T23:34:16.533Z,0
2016-07-25T23:35:16.038Z,0
2016-07-25T23:36:17.247Z,0
2016-07-25T23:37:15.822Z,0
2016-07-25T23:38:15.829Z,0
2016-07-25T23:39:15.844Z,0
2016-07-25T23:40:15.846Z,0
2016-07-25T23:41:15.857Z,0
2016-07-25T23:42:17.346Z,0
2016-07-25T23:43:16.618Z,0
2016-07-25T23:44:15.908Z,0
2016-07-25T23:45:15.914Z,0
2016-07-25T23:46:15.908Z,0
2016-07-25T23:47:30.790Z,0
2016-07-25T23:48:15.950Z,0
2016-07-25T23:49:15.955Z,0
2016-07-25T23:50:15.991Z,0
2016-07-25T23:51:16.685Z,0
2016-07-25T23:52:15.980Z,0
2016-07-25T23:53:15.986Z,0
2016-07-25T23:54:16.907Z,0
2016-07-25T23:55:16.057Z,0
2016-07-25T23:56:16.021Z,0
2016-07-25T23:57:17.641Z,0
2016-07-25T23:58:16.043Z,0
2016-07-25T23:59:16.050Z,0
